createdAt,value
2019-06-26T00:00:10.316Z,102017.23
2019-06-26T00:02:39.541Z,102015.88
2019-06-26T00:05:08.874Z,102006.61
2019-06-26T00:07:38.227Z,102006.64
2019-06-26T00:10:07.969Z,102016.87
2019-06-26T00:12:37.338Z,102012.55
2019-06-26T00:15:07.234Z,102015.66
2019-06-26T00:17:36.449Z,102017.38
2019-06-26T00:20:07.375Z,102018.66
2019-06-26T00:22:36.607Z,102010.69
2019-06-26T00:25:06.105Z,102007.14
2019-06-26T00:27:35.296Z,101999.20
2019-06-26T00:30:05.293Z,101989.53
2019-06-26T00:32:34.497Z,101989.11
2019-06-26T00:35:03.724Z,101988.58
2019-06-26T00:37:32.986Z,101992.55
2019-06-26T00:40:02.296Z,101990.80
2019-06-26T00:42:31.653Z,101978.41
2019-06-26T00:45:00.896Z,101975.70
2019-06-26T00:47:30.090Z,101969.94
2019-06-26T00:49:59.294Z,101961.14
2019-06-26T00:52:28.547Z,101959.45
2019-06-26T00:54:57.733Z,101957.30
2019-06-26T00:57:26.939Z,101957.36
2019-06-26T00:59:56.163Z,101951.17
2019-06-26T01:02:25.427Z,101952.93
2019-06-26T01:04:56.640Z,101948.92
2019-06-26T01:07:25.909Z,101959.95
2019-06-26T01:09:55.108Z,101954.62
2019-06-26T01:12:24.405Z,101954.12
2019-06-26T01:14:53.800Z,101963.32
2019-06-26T01:17:23.084Z,101947.86
2019-06-26T01:19:52.358Z,101936.35
2019-06-26T01:22:21.613Z,101937.11
2019-06-26T01:24:51.044Z,101939.63
2019-06-26T01:27:20.259Z,101936.05
2019-06-26T01:29:49.800Z,101935.16
2019-06-26T01:32:19.000Z,101936.05
2019-06-26T01:34:48.188Z,101935.52
2019-06-26T01:37:17.425Z,101932.38
2019-06-26T01:39:46.607Z,101936.81
2019-06-26T01:42:16.037Z,101937.23
2019-06-26T01:44:45.662Z,101939.42
2019-06-26T01:47:16.117Z,101936.31
2019-06-26T01:49:45.317Z,101937.66
2019-06-26T01:52:14.557Z,101930.12
2019-06-26T01:54:43.756Z,101928.83
2019-06-26T01:57:12.954Z,101926.26
2019-06-26T01:59:42.236Z,101919.70
2019-06-26T02:02:11.420Z,101912.66
2019-06-26T02:04:40.615Z,101921.89
2019-06-26T02:07:10.165Z,101917.09
2019-06-26T02:09:39.378Z,101916.70
2019-06-26T02:12:08.599Z,101912.30
2019-06-26T02:14:38.228Z,101911.34
2019-06-26T02:17:07.765Z,101906.94
2019-06-26T02:19:36.971Z,101899.45
2019-06-26T02:22:06.442Z,101897.27
2019-06-26T02:24:35.654Z,101896.81
2019-06-26T02:27:04.832Z,101896.34
2019-06-26T02:29:34.082Z,101890.98
2019-06-26T02:32:03.310Z,101889.59
2019-06-26T02:34:32.497Z,101885.16
2019-06-26T02:37:01.730Z,101878.09
2019-06-26T02:39:30.934Z,101883.41
2019-06-26T02:42:00.155Z,101878.95
2019-06-26T02:44:47.120Z,101868.36
2019-06-26T02:47:18.354Z,101867.00
2019-06-26T02:49:31.703Z,101865.72
2019-06-26T02:52:01.018Z,101867.53
2019-06-26T02:54:30.209Z,101860.02
2019-06-26T02:56:59.417Z,101858.73
2019-06-26T02:59:28.738Z,101857.37
2019-06-26T03:01:57.961Z,101867.41
2019-06-26T03:04:27.162Z,101858.11
2019-06-26T03:06:56.503Z,101855.00
2019-06-26T03:09:25.694Z,101858.94
2019-06-26T03:11:54.890Z,101865.16
2019-06-26T03:14:24.177Z,101859.09
2019-06-26T03:16:53.787Z,101857.78
2019-06-26T03:19:23.030Z,101855.09
2019-06-26T03:21:52.273Z,101844.45
2019-06-26T03:24:21.486Z,101834.30
2019-06-26T03:26:50.765Z,101839.58
2019-06-26T03:29:20.005Z,101839.64
2019-06-26T03:31:49.263Z,101843.72
2019-06-26T03:34:18.501Z,101855.29
2019-06-26T03:36:50.180Z,101864.19
2019-06-26T03:39:20.419Z,101869.48
2019-06-26T03:41:49.839Z,101856.24
2019-06-26T03:44:19.095Z,101849.63
2019-06-26T03:46:48.610Z,101846.13
2019-06-26T03:49:17.843Z,101832.36
2019-06-26T03:51:47.067Z,101828.39
2019-06-26T03:54:16.519Z,101836.30
2019-06-26T03:56:45.717Z,101835.41
2019-06-26T03:59:14.944Z,101837.19
2019-06-26T04:01:44.137Z,101829.68
2019-06-26T04:04:13.346Z,101823.56
2019-06-26T04:06:42.676Z,101811.28
2019-06-26T04:09:11.865Z,101799.86
2019-06-26T04:11:41.435Z,101797.67
2019-06-26T04:14:10.743Z,101799.00
2019-06-26T04:16:39.952Z,101790.16
2019-06-26T04:19:09.335Z,101779.11
2019-06-26T04:21:38.560Z,101794.13
2019-06-26T04:24:08.103Z,101799.89
2019-06-26T04:26:37.334Z,101787.95
2019-06-26T04:29:06.605Z,101781.33
2019-06-26T04:31:36.118Z,101781.39
2019-06-26T04:34:05.463Z,101772.95
2019-06-26T04:36:34.685Z,101771.11
2019-06-26T04:39:05.826Z,101782.08
2019-06-26T04:41:37.341Z,101783.48
2019-06-26T04:44:06.576Z,101761.02
2019-06-26T04:46:35.774Z,101767.20
2019-06-26T04:49:04.972Z,101762.80
2019-06-26T04:51:34.225Z,101749.51
2019-06-26T04:54:03.402Z,101737.14
2019-06-26T04:56:32.604Z,101731.90
2019-06-26T04:59:03.273Z,101735.47
2019-06-26T05:01:32.520Z,101748.67
2019-06-26T05:04:01.754Z,101752.24
2019-06-26T05:06:31.188Z,101754.89
2019-06-26T05:09:00.398Z,101748.24
2019-06-26T05:11:29.618Z,101735.41
2019-06-26T05:13:58.886Z,101751.20
2019-06-26T05:16:28.051Z,101751.61
2019-06-26T05:18:57.280Z,101731.64
2019-06-26T05:21:26.665Z,101720.56
2019-06-26T05:23:55.840Z,101702.88
2019-06-26T05:26:25.046Z,101696.23
2019-06-26T05:28:54.310Z,101704.59
2019-06-26T05:31:23.597Z,101696.20
2019-06-26T05:33:52.806Z,101696.66
2019-06-26T05:36:22.094Z,101702.47
2019-06-26T05:38:51.295Z,101706.50
2019-06-26T05:41:20.946Z,101711.87
2019-06-26T05:43:50.511Z,101721.20
2019-06-26T05:46:30.630Z,101727.01
2019-06-26T05:48:52.442Z,101730.61
2019-06-26T05:51:21.667Z,101741.22
2019-06-26T05:53:51.040Z,101740.30
2019-06-26T05:56:20.331Z,101616.37
2019-06-26T05:58:49.685Z,101753.65
2019-06-26T06:01:19.257Z,101749.25
2019-06-26T06:03:48.497Z,101747.49
2019-06-26T06:06:17.747Z,101741.39
2019-06-26T06:08:46.936Z,101736.55
2019-06-26T06:11:16.158Z,101735.28
2019-06-26T06:13:45.817Z,101729.19
2019-06-26T06:16:15.053Z,101723.53
2019-06-26T06:18:44.238Z,101725.41
2019-06-26T06:21:13.488Z,101725.05
2019-06-26T06:23:45.220Z,101736.18
2019-06-26T06:26:14.406Z,101739.72
2019-06-26T06:28:43.635Z,101739.27
2019-06-26T06:31:12.897Z,101737.45
2019-06-26T06:33:42.085Z,101730.33
2019-06-26T06:36:11.607Z,101727.23
2019-06-26T06:38:40.800Z,101722.81
2019-06-26T06:41:10.001Z,101726.30
2019-06-26T06:43:39.453Z,101723.99
2019-06-26T06:46:08.660Z,101720.83
2019-06-26T06:48:37.867Z,101716.70
2019-06-26T06:51:07.106Z,101709.95
2019-06-26T06:53:37.299Z,101720.88
2019-06-26T06:56:06.491Z,101726.52
2019-06-26T06:58:35.743Z,101723.39
2019-06-26T07:01:05.055Z,101720.33
2019-06-26T07:03:34.266Z,101710.72
2019-06-26T07:06:03.513Z,101701.14
2019-06-26T07:08:32.727Z,101697.27
2019-06-26T07:11:01.942Z,101695.63
2019-06-26T07:13:31.417Z,101691.25
2019-06-26T07:16:00.621Z,101689.11
2019-06-26T07:18:29.828Z,101698.03
2019-06-26T07:20:59.093Z,101700.30
2019-06-26T07:23:28.320Z,101690.22
2019-06-26T07:25:57.621Z,101694.28
2019-06-26T07:28:26.896Z,101682.88
2019-06-26T07:30:56.099Z,101682.08
2019-06-26T07:33:27.598Z,101683.52
2019-06-26T07:35:56.982Z,101684.84
2019-06-26T07:38:26.174Z,101679.57
2019-06-26T07:40:55.435Z,101680.38
2019-06-26T07:43:24.716Z,101678.49
2019-06-26T07:45:54.108Z,101690.41
2019-06-26T07:48:23.302Z,101690.34
2019-06-26T07:50:52.832Z,101695.08
2019-06-26T07:53:22.074Z,101695.87
2019-06-26T07:55:51.273Z,101698.05
2019-06-26T07:58:20.613Z,101688.66
2019-06-26T08:00:49.798Z,101683.25
2019-06-26T08:03:18.998Z,101672.18
2019-06-26T08:05:48.423Z,101667.31
2019-06-26T08:08:17.680Z,101666.83
2019-06-26T08:10:46.868Z,101661.02
2019-06-26T08:13:16.346Z,101655.30
2019-06-26T08:15:45.536Z,101660.27
2019-06-26T08:18:14.725Z,101659.50
2019-06-26T08:20:55.391Z,101664.50
2019-06-26T08:23:15.396Z,101668.11
2019-06-26T08:25:44.836Z,101670.81
2019-06-26T08:28:14.260Z,101675.70
2019-06-26T08:30:43.519Z,101673.97
2019-06-26T08:33:12.729Z,101668.20
2019-06-26T08:35:41.997Z,101669.08
2019-06-26T08:38:15.338Z,101656.67
2019-06-26T08:40:42.113Z,101655.73
2019-06-26T08:43:11.563Z,101654.39
2019-06-26T08:45:40.788Z,101662.77
2019-06-26T08:48:19.334Z,101660.90
2019-06-26T08:50:41.069Z,101657.42
2019-06-26T08:53:10.455Z,101656.60
2019-06-26T08:55:39.845Z,101660.16
2019-06-26T08:58:09.192Z,101661.54
2019-06-26T09:00:38.440Z,101650.08
2019-06-26T09:03:07.660Z,101649.64
2019-06-26T09:05:47.584Z,101658.94
2019-06-26T09:08:07.922Z,101664.67
2019-06-26T09:10:37.257Z,101661.54
2019-06-26T09:13:06.518Z,101652.70
2019-06-26T09:15:35.712Z,101642.09
2019-06-26T09:18:04.929Z,101634.14
2019-06-26T09:20:38.764Z,101638.62
2019-06-26T09:23:08.542Z,101637.41
2019-06-26T09:25:37.878Z,101626.42
2019-06-26T09:28:07.201Z,101624.23
2019-06-26T09:30:36.611Z,101618.96
2019-06-26T09:33:06.104Z,101619.02
2019-06-26T09:35:35.587Z,101623.91
2019-06-26T09:38:04.903Z,101610.66
2019-06-26T09:40:34.102Z,101611.12
2019-06-26T09:43:03.482Z,101616.87
2019-06-26T09:45:32.685Z,101619.98
2019-06-26T09:48:01.926Z,101617.81
2019-06-26T09:50:31.269Z,101620.91
2019-06-26T09:53:00.485Z,101618.24
2019-06-26T09:55:29.665Z,101618.63
2019-06-26T09:57:58.893Z,101620.35
2019-06-26T10:00:28.359Z,101613.73
2019-06-26T10:02:57.569Z,101610.63
2019-06-26T10:05:26.912Z,101607.97
2019-06-26T10:07:56.112Z,101600.50
2019-06-26T10:10:25.331Z,101605.91
2019-06-26T10:12:54.633Z,101605.10
2019-06-26T10:15:23.885Z,101599.03
2019-06-26T10:17:53.111Z,101594.69
2019-06-26T10:20:22.401Z,101595.17
2019-06-26T10:22:51.581Z,101589.44
2019-06-26T10:25:21.019Z,101588.12
2019-06-26T10:27:50.358Z,101583.63
2019-06-26T10:30:21.206Z,101579.65
2019-06-26T10:32:50.608Z,101576.58
2019-06-26T10:35:19.951Z,101577.02
2019-06-26T10:37:49.132Z,101572.19
2019-06-26T10:40:18.856Z,101569.94
2019-06-26T10:42:48.100Z,101574.78
2019-06-26T10:45:18.507Z,101574.77
2019-06-26T10:47:47.758Z,101570.31
2019-06-26T10:50:17.907Z,101561.06
2019-06-26T10:52:47.223Z,101554.48
2019-06-26T10:55:16.424Z,101561.17
2019-06-26T10:57:45.679Z,101563.42
2019-06-26T11:00:16.235Z,101566.53
2019-06-26T11:02:45.463Z,101564.78
2019-06-26T11:05:16.175Z,101556.87
2019-06-26T11:07:45.846Z,101552.88
2019-06-26T11:10:15.524Z,101548.88
2019-06-26T11:12:48.835Z,101544.47
2019-06-26T11:15:16.386Z,101541.85
2019-06-26T11:17:45.735Z,101541.89
2019-06-26T11:20:15.253Z,101535.70
2019-06-26T11:22:44.575Z,101533.03
2019-06-26T11:25:13.905Z,101534.35
2019-06-26T11:27:43.213Z,101526.33
2019-06-26T11:30:13.359Z,101527.64
2019-06-26T11:32:42.565Z,101518.37
2019-06-26T11:35:13.429Z,101514.89
2019-06-26T11:37:42.801Z,101516.25
2019-06-26T11:40:12.489Z,101513.65
2019-06-26T11:42:41.717Z,101508.83
2019-06-26T11:45:12.083Z,101502.20
2019-06-26T11:47:41.412Z,101501.77
2019-06-26T11:50:11.823Z,101511.55
2019-06-26T11:52:42.031Z,101512.46
2019-06-26T11:55:12.048Z,101508.53
2019-06-26T11:57:41.401Z,101492.62
2019-06-26T12:00:11.943Z,101493.50
2019-06-26T12:02:41.160Z,101490.84
2019-06-26T12:05:11.943Z,101488.27
2019-06-26T12:07:41.417Z,101486.12
2019-06-26T12:10:11.011Z,101477.70
2019-06-26T12:12:40.588Z,101472.41
2019-06-26T12:15:10.948Z,101466.72
2019-06-26T12:17:40.231Z,101467.16
2019-06-26T12:20:18.463Z,101468.00
2019-06-26T12:22:41.153Z,101469.80
2019-06-26T12:25:10.762Z,101459.61
2019-06-26T12:27:40.025Z,101453.39
2019-06-26T12:30:09.982Z,101456.45
2019-06-26T12:32:42.423Z,101451.98
2019-06-26T12:35:11.121Z,101442.23
2019-06-26T12:37:40.533Z,101447.52
2019-06-26T12:40:10.502Z,101453.29
2019-06-26T12:42:40.133Z,101457.36
2019-06-26T12:45:10.523Z,101445.45
2019-06-26T12:47:39.847Z,101437.05
2019-06-26T12:50:09.710Z,101438.83
2019-06-26T12:52:38.912Z,101439.27
2019-06-26T12:55:08.175Z,101435.31
2019-06-26T12:57:37.485Z,101442.87
2019-06-26T13:00:07.831Z,101448.20
2019-06-26T13:02:37.116Z,101450.86
2019-06-26T13:05:06.776Z,101460.16
2019-06-26T13:07:36.253Z,101467.26
2019-06-26T13:10:07.578Z,101459.71
2019-06-26T13:12:37.456Z,101445.09
2019-06-26T13:15:07.533Z,101442.45
2019-06-26T13:17:37.060Z,101441.60
2019-06-26T13:20:09.694Z,101435.42
2019-06-26T13:22:37.881Z,101428.33
2019-06-26T13:25:07.318Z,101429.22
2019-06-26T13:27:36.934Z,101426.56
2019-06-26T13:30:07.228Z,101434.09
2019-06-26T13:32:36.925Z,101417.73
2019-06-26T13:35:06.570Z,101419.48
2019-06-26T13:37:35.783Z,101418.60
2019-06-26T13:40:06.303Z,101418.60
2019-06-26T13:42:35.807Z,101417.70
2019-06-26T13:45:05.374Z,101414.59
2019-06-26T13:47:34.615Z,101412.80
2019-06-26T13:50:04.217Z,101407.02
2019-06-26T13:52:33.446Z,101397.73
2019-06-26T13:55:02.675Z,101398.17
2019-06-26T13:57:32.108Z,101383.55
2019-06-26T14:00:01.330Z,101379.11
2019-06-26T14:02:30.565Z,101385.28
2019-06-26T14:05:00.591Z,101377.77
2019-06-26T14:07:29.753Z,101383.08
2019-06-26T14:09:58.973Z,101381.31
2019-06-26T14:12:28.447Z,101383.54
2019-06-26T14:14:58.382Z,101383.11
2019-06-26T14:17:27.782Z,101387.55
2019-06-26T14:19:57.155Z,101376.09
2019-06-26T14:22:26.393Z,101370.81
2019-06-26T14:24:56.817Z,101243.89
2019-06-26T14:27:26.163Z,101366.89
2019-06-26T14:29:55.400Z,101373.56
2019-06-26T14:32:24.778Z,101367.84
2019-06-26T14:34:54.462Z,101365.23
2019-06-26T14:37:23.688Z,101364.34
2019-06-26T14:39:52.935Z,101367.86
2019-06-26T14:42:22.625Z,101363.88
2019-06-26T14:44:52.808Z,101352.78
2019-06-26T14:47:22.526Z,101349.67
2019-06-26T14:49:51.891Z,101344.33
2019-06-26T14:52:23.268Z,101346.50
2019-06-26T14:54:52.593Z,101352.25
2019-06-26T14:57:25.730Z,101357.12
2019-06-26T14:59:53.029Z,101347.40
2019-06-26T15:02:22.276Z,101337.22
2019-06-26T15:04:52.028Z,101324.40
2019-06-26T15:07:21.355Z,101324.81
2019-06-26T15:09:50.662Z,101310.65
2019-06-26T15:12:23.050Z,101305.38
2019-06-26T15:14:54.583Z,101297.89
2019-06-26T15:17:24.051Z,101299.70
2019-06-26T15:19:53.716Z,101291.33
2019-06-26T15:22:23.039Z,101287.34
2019-06-26T15:24:54.724Z,101287.36
2019-06-26T15:27:24.029Z,101285.17
2019-06-26T15:29:55.786Z,101284.29
2019-06-26T15:32:25.289Z,101283.02
2019-06-26T15:34:54.739Z,101281.80
2019-06-26T15:37:24.340Z,101277.41
2019-06-26T15:39:53.528Z,101282.73
2019-06-26T15:42:23.143Z,101277.40
2019-06-26T15:44:52.551Z,101275.17
2019-06-26T15:47:21.747Z,101275.58
2019-06-26T15:49:51.170Z,101270.70
2019-06-26T15:52:23.016Z,101155.16
2019-06-26T15:54:52.232Z,101269.42
2019-06-26T15:57:22.315Z,101274.73
2019-06-26T15:59:51.551Z,101266.32
2019-06-26T16:02:21.967Z,101266.32
2019-06-26T16:04:51.704Z,101264.55
2019-06-26T16:07:20.962Z,101265.45
2019-06-26T16:09:50.175Z,101255.25
2019-06-26T16:12:20.130Z,101253.48
2019-06-26T16:14:49.375Z,101253.49
2019-06-26T16:17:25.119Z,101256.16
2019-06-26T16:19:56.599Z,101254.37
2019-06-26T16:22:32.153Z,101253.93
2019-06-26T16:24:59.428Z,101249.50
2019-06-26T16:27:28.726Z,101247.72
2019-06-26T16:29:57.931Z,101244.16
2019-06-26T16:32:27.205Z,101245.48
2019-06-26T16:34:56.538Z,101237.06
2019-06-26T16:37:26.095Z,101239.71
2019-06-26T16:39:55.415Z,101238.38
2019-06-26T16:42:24.811Z,101236.17
2019-06-26T16:44:54.059Z,101233.52
2019-06-26T16:47:23.413Z,101227.77
2019-06-26T16:49:52.738Z,101224.23
2019-06-26T16:52:21.954Z,101220.26
2019-06-26T16:54:51.458Z,101217.60
2019-06-26T16:57:20.783Z,101215.83
2019-06-26T17:00:05.059Z,101216.27
2019-06-26T17:02:23.307Z,101208.75
2019-06-26T17:04:52.569Z,101206.54
2019-06-26T17:07:21.775Z,101203.00
2019-06-26T17:09:51.619Z,101199.89
2019-06-26T17:12:20.880Z,101193.26
2019-06-26T17:14:50.235Z,101199.02
2019-06-26T17:17:19.734Z,101198.13
2019-06-26T17:19:48.951Z,101195.92
2019-06-26T17:22:18.175Z,101195.92
2019-06-26T17:24:47.633Z,101191.49
2019-06-26T17:27:16.871Z,101191.94
2019-06-26T17:29:46.106Z,101185.30
2019-06-26T17:32:15.550Z,101183.08
2019-06-26T17:34:44.770Z,101180.86
2019-06-26T17:37:14.008Z,101170.23
2019-06-26T17:39:43.493Z,101166.66
2019-06-26T17:42:12.724Z,101168.87
2019-06-26T17:44:41.960Z,101167.14
2019-06-26T17:47:11.361Z,101158.73
2019-06-26T17:49:40.749Z,101149.88
2019-06-26T17:52:09.984Z,101142.34
2019-06-26T17:54:39.307Z,101134.34
2019-06-26T17:57:08.640Z,101139.20
2019-06-26T17:59:37.861Z,101138.31
2019-06-26T18:02:07.354Z,101133.43
2019-06-26T18:04:36.554Z,101140.95
2019-06-26T18:07:05.787Z,101140.08
2019-06-26T18:09:35.551Z,101138.31
2019-06-26T18:12:04.764Z,101128.58
2019-06-26T18:14:33.992Z,101127.26
2019-06-26T18:17:03.452Z,101141.89
2019-06-26T18:19:32.668Z,101140.12
2019-06-26T18:22:02.043Z,101136.15
2019-06-26T18:24:37.344Z,101133.05
2019-06-26T18:27:12.440Z,101130.39
2019-06-26T18:29:46.829Z,101135.70
2019-06-26T18:32:19.470Z,101141.87
2019-06-26T18:35:03.249Z,101141.87
2019-06-26T18:37:40.543Z,101147.17
2019-06-26T18:40:12.361Z,101140.09
2019-06-26T18:42:41.584Z,101139.64
2019-06-26T18:45:13.149Z,101136.56
2019-06-26T18:47:42.689Z,101143.19
2019-06-26T18:50:12.165Z,101141.84
2019-06-26T18:52:45.941Z,101144.48
2019-06-26T18:55:42.898Z,101140.92
2019-06-26T18:58:23.013Z,101147.53
2019-06-26T19:01:06.943Z,101148.39
2019-06-26T19:03:40.474Z,101152.36
2019-06-26T19:06:19.502Z,101151.91
2019-06-26T19:08:57.004Z,101143.07
2019-06-26T19:11:28.842Z,101142.17
2019-06-26T19:14:01.737Z,101140.80
2019-06-26T19:16:32.284Z,101140.77
2019-06-26T19:19:05.482Z,101138.99
2019-06-26T19:21:37.575Z,101136.33
2019-06-26T19:24:10.694Z,101135.44
2019-06-26T19:26:40.446Z,101129.70
2019-06-26T19:29:09.687Z,101133.25
2019-06-26T19:31:38.917Z,101131.50
2019-06-26T19:34:08.233Z,101117.36
2019-06-26T19:36:49.675Z,101121.34
2019-06-26T19:39:08.500Z,101126.19
2019-06-26T19:41:37.827Z,101129.70
2019-06-26T19:44:08.970Z,101135.86
2019-06-26T19:46:41.693Z,101131.42
2019-06-26T19:49:09.091Z,101132.29
2019-06-26T19:51:39.674Z,101134.92
2019-06-26T19:54:22.912Z,101151.72
2019-06-26T19:56:40.248Z,101144.22
2019-06-26T19:59:10.455Z,101115.88
2019-06-26T20:01:39.676Z,101146.89
2019-06-26T20:04:09.175Z,101152.63
2019-06-26T20:06:38.417Z,101149.98
2019-06-26T20:09:07.793Z,101153.52
2019-06-26T20:11:37.253Z,101143.34
2019-06-26T20:14:06.539Z,101144.22
2019-06-26T20:16:35.757Z,101147.30
2019-06-26T20:19:05.075Z,101145.08
2019-06-26T20:21:34.618Z,101140.21
2019-06-26T20:24:03.882Z,101139.75
2019-06-26T20:26:33.318Z,101143.27
2019-06-26T20:29:02.789Z,101142.37
2019-06-26T20:31:32.427Z,101140.16
2019-06-26T20:34:01.849Z,101139.28
2019-06-26T20:36:31.115Z,101134.85
2019-06-26T20:39:00.444Z,101140.61
2019-06-26T20:41:29.872Z,101139.72
2019-06-26T20:43:59.512Z,101143.70
2019-06-26T20:46:28.964Z,101138.84
2019-06-26T20:48:58.274Z,101136.64
2019-06-26T20:51:27.646Z,101138.86
2019-06-26T20:53:56.899Z,101137.09
2019-06-26T20:56:26.411Z,101136.21
2019-06-26T20:58:56.629Z,101134.89
2019-06-26T21:01:25.889Z,101134.43
2019-06-26T21:03:55.426Z,101133.55
2019-06-26T21:06:24.676Z,101119.41
2019-06-26T21:08:53.923Z,101107.04
2019-06-26T21:11:23.320Z,101101.73
2019-06-26T21:13:52.679Z,101096.44
2019-06-26T21:16:21.904Z,101095.09
2019-06-26T21:18:51.246Z,101087.13
2019-06-26T21:21:21.598Z,101098.63
2019-06-26T21:23:50.839Z,101095.52
2019-06-26T21:26:20.243Z,101095.07
2019-06-26T21:28:49.507Z,101099.03
2019-06-26T21:31:18.751Z,101101.66
2019-06-26T21:33:48.239Z,101107.80
2019-06-26T21:36:17.513Z,101111.29
2019-06-26T21:38:46.700Z,101113.03
2019-06-26T21:41:16.004Z,101111.68
2019-06-26T21:43:45.288Z,101117.83
2019-06-26T21:46:14.517Z,101122.66
2019-06-26T21:48:43.811Z,101122.21
2019-06-26T21:51:13.099Z,101110.72
2019-06-26T21:53:43.125Z,101104.97
2019-06-26T21:56:12.659Z,101106.72
2019-06-26T21:58:42.006Z,101104.94
2019-06-26T22:01:11.220Z,101104.03
2019-06-26T22:03:40.662Z,101102.69
2019-06-26T22:06:10.015Z,101100.43
2019-06-26T22:08:39.228Z,101100.41
2019-06-26T22:11:09.284Z,101104.34
2019-06-26T22:13:38.549Z,101106.05
2019-06-26T22:16:07.783Z,101110.88
2019-06-26T22:18:37.181Z,101118.34
2019-06-26T22:21:06.589Z,101120.09
2019-06-26T22:23:35.808Z,101122.30
2019-06-26T22:26:05.700Z,101123.64
2019-06-26T22:28:34.976Z,101114.00
2019-06-26T22:31:04.198Z,101120.66
2019-06-26T22:33:33.702Z,101125.56
2019-06-26T22:36:03.274Z,101120.73
2019-06-26T22:38:32.510Z,101124.32
2019-06-26T22:41:01.910Z,101126.11
2019-06-26T22:43:31.188Z,101127.44
2019-06-26T22:46:00.405Z,101123.05
2019-06-26T22:48:29.915Z,101120.39
2019-06-26T22:50:59.331Z,101123.93
2019-06-26T22:53:28.556Z,101124.36
2019-06-26T22:56:07.422Z,101128.34
2019-06-26T22:58:28.996Z,101127.45
2019-06-26T23:00:58.359Z,101130.09
2019-06-26T23:03:27.976Z,101127.44
2019-06-26T23:05:57.317Z,101122.59
2019-06-26T23:08:26.610Z,101121.70
2019-06-26T23:10:55.949Z,101127.86
2019-06-26T23:13:25.844Z,101123.00
2019-06-26T23:15:55.073Z,101127.84
2019-06-26T23:18:24.460Z,101121.61
2019-06-26T23:20:53.794Z,101123.36
2019-06-26T23:23:23.036Z,101121.58
2019-06-26T23:25:52.379Z,101118.91
2019-06-26T23:28:21.946Z,101121.98
2019-06-26T23:30:51.221Z,101120.20
2019-06-26T23:33:20.978Z,101129.44
2019-06-26T23:35:50.332Z,101133.82
2019-06-26T23:38:19.718Z,101132.92
2019-06-26T23:40:49.060Z,101141.27
2019-06-26T23:43:18.322Z,101143.91
2019-06-26T23:45:47.603Z,101136.36
2019-06-26T23:48:17.135Z,101141.61
2019-06-26T23:50:46.687Z,101141.13
2019-06-26T23:53:16.289Z,101139.76
2019-06-26T23:55:45.702Z,101138.36
2019-06-26T23:58:15.023Z,101147.54
